Corpus Christi, TX

1:49 PM CST on December 10, 2016 (GMT -0600)
Corpus Christi Naval Air Station-Truax | | Change Station

Elev 20 ft 27.69 °N, 97.29 °W | Updated 15 minutes ago

Overcast
Overcast
56 °F
Feels Like 56 °F
N
12
Wind Variable Wind from NNW

Today
High -- | Low -- °F
--% Chance of Precip.
Yesterday
High -- | Low -- °F
Precip. -- in
Pressure 30.29 in
Visibility 10.0 miles
Clouds Mostly Cloudy 2900 ft
Overcast 3500 ft
Dew Point 53 °F
Humidity 90%
Rainfall 0.00 in
Snow Depth Not available.
7:09 AM 5:35 PM
Waxing Gibbous, 86% visible
SPECI KNGP 101934Z AUTO 34010KT 10SM BKN029 OVC035 13/12 A3029 RMK AO2 T01330117
Pressure 30.29 in
Visibility 10.0 miles
Clouds Mostly Cloudy 2900 ft
Overcast 3500 ft
Dew Point 53 °F
Humidity 90%
Rainfall 0.00 in
Snow Depth Not available.
7:09 AM 5:35 PM
Waxing Gibbous, 86% visible
SPECI KNGP 101934Z AUTO 34010KT 10SM BKN029 OVC035 13/12 A3029 RMK AO2 T01330117

10-Day Weather Forecast

Almanac

Astronomy

Dec. 10, 2016 Rise Set
Actual Time
Civil Twilight
Nautical Twilight
Astronomical Twilight
Moon
Length of Visible Light
Length of Day
Tomorrow will be .
, % of the Moon is Illuminated

Today's Extremes

State Highs State Lows

Community

WunderPhotos

Upload Photos

1,956,646 photos uploaded!

WunderBlog® & News

Nearby

Air Quality

  Air Quality AQ Index Pollutant
Not available.

Snow Depth

Station Depth Elevation

Earthquake Activity

City Distance Mag. Time & Date
Minimum magnitude displayed is 2.5.

Coastal Water Temperatures

Place Temperature

Stations

Nearby Weather Stations

Station Location Temp. Windchill Dew Point Humidity Wind Precip. Elev Updated Type
                   

Watches & Warnings

There are currently no watches in effect.